createdAt,value
2019-06-09T00:01:42.857Z,17.44
2019-06-09T00:04:17.737Z,17.42
2019-06-09T00:06:50.989Z,17.30
2019-06-09T00:09:23.934Z,17.41
2019-06-09T00:12:00.783Z,17.42
2019-06-09T00:14:33.094Z,17.47
2019-06-09T00:17:07.733Z,17.44
2019-06-09T00:19:39.183Z,17.45
2019-06-09T00:22:12.603Z,17.31
2019-06-09T00:24:44.025Z,17.25
2019-06-09T00:27:19.752Z,17.32
2019-06-09T00:29:52.007Z,17.34
2019-06-09T00:32:27.588Z,17.35
2019-06-09T00:35:02.373Z,17.27
2019-06-09T00:37:34.229Z,17.18
2019-06-09T00:40:08.180Z,17.20
2019-06-09T00:42:43.309Z,17.23
2019-06-09T00:45:16.631Z,17.28
2019-06-09T00:47:50.162Z,17.30
2019-06-09T00:50:22.256Z,17.25
2019-06-09T00:52:57.884Z,17.22
2019-06-09T00:55:31.322Z,17.24
2019-06-09T00:58:07.051Z,17.21
2019-06-09T01:00:40.186Z,16.91
2019-06-09T01:03:15.637Z,16.87
2019-06-09T01:05:49.189Z,16.97
2019-06-09T01:08:20.389Z,17.00
2019-06-09T01:10:53.521Z,17.19
2019-06-09T01:13:28.115Z,17.23
2019-06-09T01:15:59.741Z,17.15
2019-06-09T01:18:33.028Z,17.07
2019-06-09T01:21:07.417Z,17.05
2019-06-09T01:23:41.906Z,17.12
2019-06-09T01:26:14.530Z,17.18
2019-06-09T01:28:48.103Z,17.13
2019-06-09T01:31:20.378Z,17.00
2019-06-09T01:33:53.446Z,17.07
2019-06-09T01:36:28.203Z,17.06
2019-06-09T01:39:02.567Z,17.06
2019-06-09T01:41:37.787Z,17.08
2019-06-09T01:44:12.554Z,17.06
2019-06-09T01:46:47.925Z,17.08
2019-06-09T01:49:22.760Z,17.04
2019-06-09T01:51:57.623Z,17.06
2019-06-09T01:54:30.034Z,17.11
2019-06-09T01:57:01.908Z,17.13
2019-06-09T01:59:37.024Z,17.12
2019-06-09T02:02:28.284Z,16.99
2019-06-09T02:04:49.276Z,17.11
2019-06-09T02:07:23.480Z,17.06
2019-06-09T02:09:57.913Z,17.05
2019-06-09T02:12:30.817Z,17.14
2019-06-09T02:15:02.863Z,17.11
2019-06-09T02:17:34.701Z,17.06
2019-06-09T02:20:10.145Z,16.98
2019-06-09T02:22:42.773Z,17.00
2019-06-09T02:25:17.556Z,17.04
2019-06-09T02:27:50.834Z,17.10
2019-06-09T02:30:36.467Z,17.06
2019-06-09T02:33:10.993Z,17.06
2019-06-09T02:35:34.910Z,17.12
2019-06-09T02:38:08.708Z,17.15
2019-06-09T02:40:42.877Z,17.12
2019-06-09T02:43:17.172Z,17.12
2019-06-09T02:46:31.557Z,17.13
2019-06-09T02:49:05.484Z,17.11
2019-06-09T02:51:43.002Z,17.02
2019-06-09T02:54:15.920Z,17.05
2019-06-09T02:56:52.576Z,16.85
2019-06-09T02:59:31.675Z,16.90
2019-06-09T03:02:02.248Z,16.99
2019-06-09T03:04:44.392Z,16.99
2019-06-09T03:07:06.762Z,17.07
2019-06-09T03:09:42.291Z,17.04
2019-06-09T03:12:12.757Z,17.03
2019-06-09T03:14:47.743Z,16.99
2019-06-09T03:21:02.615Z,17.02
2019-06-09T03:23:39.480Z,16.98
2019-06-09T03:26:07.068Z,16.94
2019-06-09T03:28:44.217Z,16.92
2019-06-09T03:31:34.173Z,16.75
2019-06-09T03:35:17.591Z,16.66
2019-06-09T03:37:21.926Z,16.70
2019-06-09T03:39:08.259Z,16.74
2019-06-09T03:41:44.246Z,16.79
2019-06-09T03:44:14.017Z,16.78
2019-06-09T03:46:51.472Z,16.79
2019-06-09T03:49:26.278Z,16.65
2019-06-09T03:51:58.087Z,16.64
2019-06-09T03:54:38.230Z,16.71
2019-06-09T03:57:08.867Z,16.61
2019-06-09T03:59:47.171Z,16.68
2019-06-09T04:02:15.480Z,16.58
2019-06-09T04:04:52.404Z,16.48
2019-06-09T04:07:31.079Z,16.40
2019-06-09T04:10:02.673Z,16.49
2019-06-09T04:12:39.826Z,16.56
2019-06-09T04:15:08.330Z,16.64
2019-06-09T04:17:44.041Z,16.65
2019-06-09T04:20:15.733Z,16.64
2019-06-09T04:22:53.625Z,16.71
2019-06-09T04:25:25.468Z,16.74
2019-06-09T04:27:58.203Z,16.74
2019-06-09T04:30:40.032Z,16.72
2019-06-09T04:33:05.680Z,16.72
2019-06-09T04:35:57.165Z,16.77
2019-06-09T04:38:11.782Z,16.80
2019-06-09T04:40:45.166Z,16.77
2019-06-09T04:43:16.357Z,16.78
2019-06-09T04:45:48.581Z,16.75
2019-06-09T04:48:22.417Z,16.78
2019-06-09T04:50:55.394Z,16.86
2019-06-09T04:53:32.968Z,16.86
2019-06-09T04:56:04.577Z,16.92
2019-06-09T04:58:52.388Z,16.89
2019-06-09T05:01:13.039Z,16.90
2019-06-09T05:03:46.879Z,16.94
2019-06-09T05:06:38.886Z,17.01
2019-06-09T05:08:54.209Z,17.02
2019-06-09T05:11:31.084Z,17.06
2019-06-09T05:14:02.985Z,16.85
2019-06-09T05:16:38.769Z,17.00
2019-06-09T05:19:07.725Z,17.11
2019-06-09T05:21:50.206Z,17.16
2019-06-09T05:24:16.663Z,17.25
2019-06-09T05:26:52.547Z,17.31
2019-06-09T05:29:25.487Z,17.24
2019-06-09T05:32:01.994Z,17.36
2019-06-09T05:34:37.030Z,17.47
2019-06-09T05:37:18.334Z,17.30
2019-06-09T05:39:46.339Z,17.47
2019-06-09T05:42:17.651Z,17.47
2019-06-09T05:44:51.459Z,17.53
2019-06-09T05:47:26.502Z,17.75
2019-06-09T05:50:00.954Z,17.60
2019-06-09T05:52:34.988Z,17.65
2019-06-09T05:55:11.460Z,17.70
2019-06-09T05:57:44.709Z,17.71
2019-06-09T06:00:21.494Z,17.77
2019-06-09T06:02:56.022Z,17.94
2019-06-09T06:05:32.215Z,17.98
2019-06-09T06:08:03.828Z,18.05
2019-06-09T06:10:37.874Z,18.22
2019-06-09T06:13:12.138Z,18.18
2019-06-09T06:15:46.119Z,18.36
2019-06-09T06:18:21.091Z,18.23
2019-06-09T06:20:53.886Z,18.41
2019-06-09T06:23:28.657Z,18.42
2019-06-09T06:26:03.861Z,18.43
2019-06-09T06:28:35.405Z,18.50
2019-06-09T06:31:08.027Z,18.70
2019-06-09T06:33:42.780Z,18.64
2019-06-09T06:36:12.901Z,18.68
2019-06-09T06:38:45.937Z,18.81
2019-06-09T06:41:21.155Z,18.89
2019-06-09T06:43:53.090Z,18.83
2019-06-09T06:46:26.766Z,18.99
2019-06-09T06:49:01.735Z,18.96
2019-06-09T06:51:34.051Z,19.13
2019-06-09T06:54:06.078Z,19.20
2019-06-09T06:56:42.096Z,19.22
2019-06-09T06:59:13.511Z,19.09
2019-06-09T07:01:47.914Z,19.21
2019-06-09T07:04:22.252Z,19.24
2019-06-09T07:06:55.864Z,19.30
2019-06-09T07:09:27.382Z,19.17
2019-06-09T07:12:01.190Z,19.24
2019-06-09T07:14:33.369Z,19.42
2019-06-09T07:17:07.173Z,19.38
2019-06-09T07:19:42.165Z,19.40
2019-06-09T07:22:15.533Z,19.44
2019-06-09T07:24:49.721Z,19.58
2019-06-09T07:27:26.423Z,19.68
2019-06-09T07:30:01.164Z,19.72
2019-06-09T07:32:33.348Z,19.71
2019-06-09T07:35:07.419Z,19.77
2019-06-09T07:37:42.826Z,19.81
2019-06-09T07:40:13.580Z,19.95
2019-06-09T07:42:47.905Z,20.06
2019-06-09T07:45:23.093Z,20.12
2019-06-09T07:47:58.121Z,20.18
2019-06-09T07:50:31.676Z,20.14
2019-06-09T07:53:02.964Z,20.35
2019-06-09T07:55:37.774Z,20.33
2019-06-09T07:58:11.713Z,20.29
2019-06-09T08:00:43.841Z,20.43
2019-06-09T08:03:21.918Z,20.41
2019-06-09T08:06:00.455Z,20.46
2019-06-09T08:08:40.517Z,20.50
2019-06-09T08:11:11.560Z,20.54
2019-06-09T08:13:45.118Z,20.54
2019-06-09T08:16:21.313Z,20.50
2019-06-09T08:18:54.380Z,20.55
2019-06-09T08:21:31.723Z,20.69
2019-06-09T08:24:21.665Z,20.87
2019-06-09T08:26:55.327Z,20.86
2019-06-09T08:29:27.435Z,20.94
2019-06-09T08:32:01.259Z,20.96
2019-06-09T08:34:33.605Z,21.05
2019-06-09T08:37:13.651Z,21.10
2019-06-09T08:40:00.772Z,21.10
2019-06-09T08:42:36.969Z,21.16
2019-06-09T08:45:10.672Z,21.27
2019-06-09T08:47:50.361Z,21.34
2019-06-09T08:50:31.377Z,21.36
2019-06-09T08:53:11.811Z,21.30
2019-06-09T08:55:52.058Z,21.48
2019-06-09T08:58:33.247Z,21.47
2019-06-09T09:01:13.475Z,21.63
2019-06-09T09:03:55.865Z,21.74
2019-06-09T09:06:34.975Z,21.74
2019-06-09T09:09:22.087Z,21.73
2019-06-09T09:11:51.886Z,21.80
2019-06-09T09:14:25.357Z,21.90
2019-06-09T09:17:05.560Z,22.12
2019-06-09T09:19:45.058Z,22.08
2019-06-09T09:22:27.015Z,22.22
2019-06-09T09:25:18.653Z,22.20
2019-06-09T09:27:52.238Z,22.37
2019-06-09T09:30:30.968Z,22.40
2019-06-09T09:33:05.591Z,22.51
2019-06-09T09:35:37.176Z,22.54
2019-06-09T09:38:11.785Z,22.51
2019-06-09T09:40:45.626Z,22.58
2019-06-09T09:43:21.265Z,22.62
2019-06-09T09:45:57.014Z,22.66
2019-06-09T09:48:31.526Z,22.73
2019-06-09T09:51:06.084Z,22.86
2019-06-09T09:53:41.590Z,22.89
2019-06-09T09:56:14.772Z,23.01
2019-06-09T09:58:52.094Z,23.12
2019-06-09T10:01:22.929Z,23.08
2019-06-09T10:03:57.115Z,23.04
2019-06-09T10:06:30.912Z,23.14
2019-06-09T10:09:08.113Z,23.27
2019-06-09T10:11:41.937Z,23.48
2019-06-09T10:14:15.097Z,23.45
2019-06-09T10:16:47.535Z,23.41
2019-06-09T10:19:21.507Z,23.24
2019-06-09T10:21:57.593Z,23.10
2019-06-09T10:24:30.956Z,23.04
2019-06-09T10:27:02.481Z,23.17
2019-06-09T10:29:35.189Z,23.33
2019-06-09T10:32:11.379Z,23.49
2019-06-09T10:34:44.503Z,23.47
2019-06-09T10:37:16.247Z,23.63
2019-06-09T10:40:04.348Z,23.74
2019-06-09T10:42:24.167Z,23.88
2019-06-09T10:44:58.257Z,23.83
2019-06-09T10:47:30.862Z,23.89
2019-06-09T10:50:04.163Z,23.75
2019-06-09T10:52:37.911Z,23.93
2019-06-09T10:55:11.962Z,23.97
2019-06-09T10:57:44.864Z,24.24
2019-06-09T11:00:27.740Z,24.40
2019-06-09T11:02:51.537Z,24.49
2019-06-09T11:05:24.592Z,24.50
2019-06-09T11:08:00.854Z,24.53
2019-06-09T11:10:35.316Z,24.38
2019-06-09T11:13:06.450Z,24.48
2019-06-09T11:15:40.105Z,24.65
2019-06-09T11:18:21.854Z,24.63
2019-06-09T11:21:05.155Z,24.65
2019-06-09T11:23:43.515Z,24.70
2019-06-09T11:26:22.868Z,24.56
2019-06-09T11:29:04.852Z,24.58
2019-06-09T11:31:40.716Z,24.66
2019-06-09T11:34:12.580Z,24.62
2019-06-09T11:36:44.489Z,24.65
2019-06-09T11:39:16.608Z,24.83
2019-06-09T11:41:48.536Z,24.82
2019-06-09T11:44:25.434Z,25.05
2019-06-09T11:47:05.686Z,25.11
2019-06-09T11:49:37.762Z,24.98
2019-06-09T11:52:13.263Z,25.15
2019-06-09T11:54:45.539Z,25.15
2019-06-09T11:57:34.732Z,25.24
2019-06-09T12:00:15.135Z,25.08
2019-06-09T12:02:41.688Z,25.12
2019-06-09T12:05:16.912Z,25.26
2019-06-09T12:07:51.124Z,25.46
2019-06-09T12:10:23.523Z,25.35
2019-06-09T12:12:57.884Z,25.22
2019-06-09T12:15:30.738Z,25.14
2019-06-09T12:18:43.473Z,25.36
2019-06-09T12:21:20.644Z,25.28
2019-06-09T12:23:54.503Z,25.38
2019-06-09T12:26:27.544Z,25.42
2019-06-09T12:29:06.058Z,25.59
2019-06-09T12:31:35.061Z,25.48
2019-06-09T12:34:08.119Z,25.56
2019-06-09T12:36:42.255Z,25.50
2019-06-09T12:39:15.823Z,25.90
2019-06-09T12:41:51.311Z,26.03
2019-06-09T12:44:25.304Z,25.91
2019-06-09T12:47:01.515Z,26.02
2019-06-09T12:49:40.683Z,25.95
2019-06-09T12:52:14.110Z,26.30
2019-06-09T12:54:49.130Z,25.84
2019-06-09T12:57:21.822Z,25.97
2019-06-09T12:59:55.954Z,25.92
2019-06-09T13:02:28.859Z,25.85
2019-06-09T13:05:04.240Z,26.14
2019-06-09T13:07:34.969Z,26.36
2019-06-09T13:10:08.948Z,26.22
2019-06-09T13:12:43.168Z,26.22
2019-06-09T13:15:16.019Z,26.14
2019-06-09T13:17:51.732Z,26.31
2019-06-09T13:20:24.256Z,26.32
2019-06-09T13:22:57.709Z,26.24
2019-06-09T13:25:34.013Z,25.92
2019-06-09T13:28:04.815Z,26.10
2019-06-09T13:30:37.237Z,26.12
2019-06-09T13:33:14.119Z,26.20
2019-06-09T13:35:46.174Z,26.21
2019-06-09T13:38:19.198Z,26.35
2019-06-09T13:40:53.253Z,26.26
2019-06-09T13:43:26.314Z,26.34
2019-06-09T13:46:00.647Z,26.28
2019-06-09T13:48:34.075Z,26.37
2019-06-09T13:51:06.599Z,26.33
2019-06-09T13:53:41.399Z,26.22
2019-06-09T13:56:15.661Z,26.31
2019-06-09T13:58:51.129Z,26.22
2019-06-09T14:01:25.974Z,26.42
2019-06-09T14:04:04.395Z,26.54
2019-06-09T14:06:36.280Z,26.44
2019-06-09T14:09:13.462Z,26.41
2019-06-09T14:12:01.029Z,26.46
2019-06-09T14:14:21.176Z,26.38
2019-06-09T14:16:54.239Z,26.31
2019-06-09T14:19:26.378Z,26.45
2019-06-09T14:22:01.393Z,26.58
2019-06-09T14:24:34.635Z,26.45
2019-06-09T14:27:07.956Z,26.31
2019-06-09T14:29:41.721Z,26.36
2019-06-09T14:32:25.274Z,26.40
2019-06-09T14:34:49.333Z,26.42
2019-06-09T14:37:21.771Z,26.44
2019-06-09T14:39:53.400Z,26.54
2019-06-09T14:42:36.801Z,26.50
2019-06-09T14:45:01.024Z,26.50
2019-06-09T14:47:36.139Z,26.54
2019-06-09T14:50:12.255Z,26.38
2019-06-09T14:52:45.058Z,26.52
2019-06-09T14:55:21.394Z,26.68
2019-06-09T14:57:53.477Z,26.54
2019-06-09T15:00:26.868Z,26.61
2019-06-09T15:03:00.770Z,26.57
2019-06-09T15:05:32.894Z,26.54
2019-06-09T15:08:07.881Z,26.56
2019-06-09T15:10:41.149Z,26.64
2019-06-09T15:13:16.044Z,26.76
2019-06-09T15:15:51.698Z,26.65
2019-06-09T15:18:26.389Z,26.51
2019-06-09T15:21:01.690Z,26.69
2019-06-09T15:23:35.790Z,26.82
2019-06-09T15:26:07.823Z,26.91
2019-06-09T15:28:42.080Z,26.76
2019-06-09T15:31:15.944Z,26.66
2019-06-09T15:33:50.594Z,26.44
2019-06-09T15:36:24.671Z,26.35
2019-06-09T15:39:00.900Z,26.40
2019-06-09T15:41:34.384Z,26.58
2019-06-09T15:44:07.848Z,26.59
2019-06-09T15:46:41.313Z,26.62
2019-06-09T15:49:15.906Z,26.54
2019-06-09T15:51:50.736Z,26.50
2019-06-09T15:54:25.459Z,26.40
2019-06-09T15:57:00.822Z,26.36
2019-06-09T15:59:35.351Z,26.27
2019-06-09T16:02:09.456Z,26.43
2019-06-09T16:04:41.535Z,26.35
2019-06-09T16:07:13.503Z,26.36
2019-06-09T16:09:45.892Z,26.16
2019-06-09T16:12:18.194Z,25.92
2019-06-09T16:14:51.683Z,25.88
2019-06-09T16:17:24.612Z,26.04
2019-06-09T16:19:57.860Z,25.93
2019-06-09T16:22:33.681Z,25.98
2019-06-09T16:25:09.610Z,25.82
2019-06-09T16:27:52.205Z,26.05
2019-06-09T16:30:22.480Z,26.02
2019-06-09T16:32:54.000Z,25.81
2019-06-09T16:35:25.165Z,25.78
2019-06-09T16:37:57.996Z,25.82
2019-06-09T16:40:35.622Z,25.78
2019-06-09T16:43:07.997Z,25.43
2019-06-09T16:45:42.743Z,25.32
2019-06-09T16:48:14.982Z,25.22
2019-06-09T16:50:57.666Z,24.99
2019-06-09T16:53:25.084Z,25.01
2019-06-09T16:55:58.079Z,24.84
2019-06-09T16:58:35.322Z,24.71
2019-06-09T17:01:06.170Z,24.91
2019-06-09T17:03:41.423Z,24.75
2019-06-09T17:06:14.179Z,24.86
2019-06-09T17:08:52.093Z,24.92
2019-06-09T17:11:26.914Z,24.47
2019-06-09T17:14:06.428Z,24.69
2019-06-09T17:16:36.235Z,24.56
2019-06-09T17:19:08.204Z,24.61
2019-06-09T17:21:41.329Z,24.55
2019-06-09T17:24:14.262Z,24.60
2019-06-09T17:26:47.215Z,24.72
2019-06-09T17:29:21.867Z,24.59
2019-06-09T17:31:54.320Z,24.56
2019-06-09T17:34:28.083Z,24.60
2019-06-09T17:37:02.377Z,24.80
2019-06-09T17:39:34.390Z,24.90
2019-06-09T17:42:11.134Z,24.63
2019-06-09T17:44:42.632Z,24.77
2019-06-09T17:47:15.391Z,24.73
2019-06-09T17:49:50.735Z,24.76
2019-06-09T17:52:25.478Z,24.61
2019-06-09T17:55:00.761Z,24.69
2019-06-09T17:57:41.147Z,24.62
2019-06-09T18:00:10.964Z,24.58
2019-06-09T18:02:59.431Z,24.61
2019-06-09T18:05:21.011Z,24.37
2019-06-09T18:07:57.191Z,24.33
2019-06-09T18:10:32.855Z,24.22
2019-06-09T18:13:02.529Z,24.08
2019-06-09T18:15:40.465Z,23.98
2019-06-09T18:18:09.159Z,24.00
2019-06-09T18:20:42.013Z,23.88
2019-06-09T18:23:15.609Z,23.85
2019-06-09T18:25:47.646Z,23.76
2019-06-09T18:28:21.593Z,23.61
2019-06-09T18:30:58.046Z,23.66
2019-06-09T18:33:32.981Z,23.67
2019-06-09T18:36:04.713Z,23.54
2019-06-09T18:38:38.552Z,23.42
2019-06-09T18:41:12.578Z,23.42
2019-06-09T18:43:48.264Z,23.36
2019-06-09T18:46:23.062Z,23.25
2019-06-09T18:48:56.690Z,23.14
2019-06-09T18:51:29.851Z,23.17
2019-06-09T18:54:04.131Z,23.15
2019-06-09T18:56:36.971Z,23.09
2019-06-09T18:59:10.961Z,23.07
2019-06-09T19:01:42.731Z,22.88
2019-06-09T19:04:16.709Z,22.90
2019-06-09T19:06:52.021Z,22.81
2019-06-09T19:09:24.796Z,22.62
2019-06-09T19:11:57.799Z,22.56
2019-06-09T19:14:31.091Z,22.46
2019-06-09T19:17:07.566Z,22.48
2019-06-09T19:19:39.769Z,22.34
2019-06-09T19:22:12.875Z,21.84
2019-06-09T19:24:45.765Z,21.33
2019-06-09T19:27:16.935Z,21.60
2019-06-09T19:29:50.261Z,21.70
2019-06-09T19:32:22.185Z,21.82
2019-06-09T19:34:55.047Z,21.87
2019-06-09T19:37:30.156Z,21.73
2019-06-09T19:40:02.996Z,21.68
2019-06-09T19:42:34.894Z,21.62
2019-06-09T19:45:13.454Z,21.61
2019-06-09T19:47:45.415Z,21.54
2019-06-09T19:50:16.269Z,21.33
2019-06-09T19:52:51.872Z,21.39
2019-06-09T19:55:26.121Z,21.34
2019-06-09T19:57:58.264Z,21.27
2019-06-09T20:00:47.301Z,21.25
2019-06-09T20:03:20.902Z,20.89
2019-06-09T20:05:54.254Z,20.77
2019-06-09T20:08:28.134Z,20.74
2019-06-09T20:11:02.303Z,20.87
2019-06-09T20:13:35.508Z,20.92
2019-06-09T20:16:16.270Z,21.01
2019-06-09T20:18:52.254Z,20.90
2019-06-09T20:21:25.848Z,20.63
2019-06-09T20:24:01.394Z,20.66
2019-06-09T20:26:34.552Z,20.70
2019-06-09T20:29:09.024Z,20.76
2019-06-09T20:31:44.231Z,20.88
2019-06-09T20:34:16.343Z,20.85
2019-06-09T20:36:51.205Z,20.63
2019-06-09T20:39:23.237Z,20.39
2019-06-09T20:41:57.850Z,20.56
2019-06-09T20:44:30.744Z,20.62
2019-06-09T20:47:02.275Z,20.71
2019-06-09T20:49:34.404Z,20.40
2019-06-09T20:52:06.232Z,20.35
2019-06-09T20:54:37.467Z,20.42
2019-06-09T20:57:11.843Z,20.46
2019-06-09T20:59:46.814Z,20.30
2019-06-09T21:02:19.328Z,20.07
2019-06-09T21:04:53.274Z,19.90
2019-06-09T21:07:26.804Z,20.04
2019-06-09T21:10:01.370Z,20.14
2019-06-09T21:12:35.429Z,19.93
2019-06-09T21:15:07.561Z,20.01
2019-06-09T21:17:45.343Z,20.00
2019-06-09T21:20:15.582Z,19.93
2019-06-09T21:22:47.968Z,19.95
2019-06-09T21:25:21.460Z,19.96
2019-06-09T21:27:54.588Z,19.95
2019-06-09T21:30:33.039Z,20.03
2019-06-09T21:33:04.766Z,19.96
2019-06-09T21:35:37.566Z,19.95
2019-06-09T21:38:12.173Z,19.97
2019-06-09T21:40:43.558Z,19.98
2019-06-09T21:43:17.538Z,19.95
2019-06-09T21:45:55.826Z,19.95
2019-06-09T21:48:25.756Z,19.90
2019-06-09T21:50:58.628Z,19.88
2019-06-09T21:53:31.540Z,19.87
2019-06-09T21:56:07.404Z,19.85
2019-06-09T21:58:43.278Z,19.85
2019-06-09T22:01:16.580Z,19.79
2019-06-09T22:03:54.490Z,19.68
2019-06-09T22:06:28.200Z,19.69
2019-06-09T22:09:05.629Z,19.55
2019-06-09T22:11:38.009Z,19.57
2019-06-09T22:14:11.885Z,19.54
2019-06-09T22:16:57.689Z,19.45
2019-06-09T22:19:17.754Z,19.41
2019-06-09T22:21:52.775Z,19.44
2019-06-09T22:24:24.795Z,19.33
2019-06-09T22:26:57.601Z,19.32
2019-06-09T22:29:31.136Z,19.31
2019-06-09T22:32:03.682Z,19.19
2019-06-09T22:34:34.877Z,19.25
2019-06-09T22:37:06.808Z,19.28
2019-06-09T22:39:38.028Z,19.25
2019-06-09T22:42:12.156Z,19.26
2019-06-09T22:44:44.754Z,19.15
2019-06-09T22:47:25.292Z,19.01
2019-06-09T22:49:52.677Z,18.96
2019-06-09T22:52:25.994Z,18.98
2019-06-09T22:54:59.607Z,18.96
2019-06-09T22:57:31.907Z,19.01
2019-06-09T23:00:11.355Z,19.06
2019-06-09T23:02:41.072Z,19.08
2019-06-09T23:05:13.072Z,18.99
2019-06-09T23:07:46.028Z,19.03
2019-06-09T23:10:21.750Z,19.04
2019-06-09T23:12:56.936Z,18.92
2019-06-09T23:15:31.467Z,18.84
2019-06-09T23:18:04.326Z,18.58
2019-06-09T23:20:36.303Z,18.51
2019-06-09T23:23:11.365Z,18.65
2019-06-09T23:25:45.148Z,18.67
2019-06-09T23:28:21.157Z,18.66
2019-06-09T23:30:55.664Z,18.67
2019-06-09T23:33:27.924Z,18.67
2019-06-09T23:36:01.011Z,18.56
2019-06-09T23:38:34.707Z,18.61
2019-06-09T23:41:06.254Z,18.47
2019-06-09T23:43:41.130Z,18.41
2019-06-09T23:46:13.124Z,18.47
2019-06-09T23:48:47.213Z,18.47
2019-06-09T23:51:21.666Z,18.56
2019-06-09T23:53:54.592Z,18.57
2019-06-09T23:56:30.607Z,18.49
2019-06-09T23:59:05.214Z,18.21
